createdAt,value
2022-12-08T00:00:52.793Z,21.69
2022-12-08T00:01:57.561Z,21.7
2022-12-08T00:03:02.938Z,21.69
2022-12-08T00:04:07.864Z,21.7
2022-12-08T00:05:12.087Z,21.71
2022-12-08T00:06:16.375Z,21.71
2022-12-08T00:07:20.620Z,21.69
2022-12-08T00:08:24.970Z,21.7
2022-12-08T00:09:33.382Z,21.68
2022-12-08T00:10:50.262Z,21.68
2022-12-08T00:11:54.559Z,21.68
2022-12-08T00:12:59.073Z,21.68
2022-12-08T00:14:03.317Z,21.69
2022-12-08T00:15:07.541Z,21.67
2022-12-08T00:16:11.883Z,21.66
2022-12-08T00:17:16.276Z,21.65
2022-12-08T00:18:20.505Z,21.67
2022-12-08T00:19:24.728Z,21.63
2022-12-08T00:20:28.948Z,21.67
2022-12-08T00:21:33.173Z,21.65
2022-12-08T00:22:37.397Z,21.65
2022-12-08T00:23:41.610Z,21.64
2022-12-08T00:24:45.853Z,21.64
2022-12-08T00:25:50.090Z,21.63
2022-12-08T00:26:54.352Z,21.61
2022-12-08T00:27:58.566Z,21.61
2022-12-08T00:29:02.801Z,21.58
2022-12-08T00:30:07.015Z,21.54
2022-12-08T00:31:11.236Z,21.55
2022-12-08T00:32:15.494Z,21.56
2022-12-08T00:33:22.760Z,21.58
2022-12-08T00:34:26.986Z,21.6
2022-12-08T00:35:31.219Z,21.58
2022-12-08T00:36:35.428Z,21.58
2022-12-08T00:37:39.656Z,21.58
2022-12-08T00:38:43.880Z,21.57
2022-12-08T00:39:48.119Z,21.57
2022-12-08T00:40:52.336Z,21.57
2022-12-08T00:41:56.589Z,21.53
2022-12-08T00:43:00.896Z,21.56
2022-12-08T00:44:05.139Z,21.58
2022-12-08T00:45:09.373Z,21.57
2022-12-08T00:46:13.670Z,21.56
2022-12-08T00:47:22.203Z,21.55
2022-12-08T00:48:28.745Z,21.55
2022-12-08T00:49:32.958Z,21.53
2022-12-08T00:50:37.220Z,21.53
2022-12-08T00:51:41.443Z,21.53
2022-12-08T00:52:45.649Z,21.55
2022-12-08T00:53:49.882Z,21.55
2022-12-08T00:54:54.079Z,21.52
2022-12-08T00:55:58.340Z,21.54
2022-12-08T00:57:02.553Z,21.52
2022-12-08T00:58:06.786Z,21.53
2022-12-08T00:59:11.004Z,21.51
2022-12-08T01:00:15.226Z,21.5
2022-12-08T01:01:19.509Z,21.51
2022-12-08T01:02:23.974Z,21.47
2022-12-08T01:03:28.311Z,21.5
2022-12-08T01:04:32.734Z,21.52
2022-12-08T01:05:36.950Z,21.51
2022-12-08T01:06:41.188Z,21.49
2022-12-08T01:07:45.488Z,21.49
2022-12-08T01:08:49.876Z,21.47
2022-12-08T01:09:54.115Z,21.47
2022-12-08T01:10:58.347Z,21.45
2022-12-08T01:12:02.603Z,21.4
2022-12-08T01:13:06.803Z,21.41
2022-12-08T01:14:11.013Z,21.41
2022-12-08T01:15:15.255Z,21.43
2022-12-08T01:16:19.497Z,21.44
2022-12-08T01:17:23.914Z,21.42
2022-12-08T01:18:28.172Z,21.43
2022-12-08T01:19:32.403Z,21.44
2022-12-08T01:20:36.617Z,21.42
2022-12-08T01:21:40.866Z,21.41
2022-12-08T01:22:45.079Z,21.41
2022-12-08T01:23:49.302Z,21.41
2022-12-08T01:24:53.535Z,21.41
2022-12-08T01:25:57.764Z,21.42
2022-12-08T01:27:02.009Z,21.4
2022-12-08T01:28:06.216Z,21.4
2022-12-08T01:29:10.449Z,21.4
2022-12-08T01:30:14.671Z,21.4
2022-12-08T01:31:18.961Z,21.4
2022-12-08T01:32:23.695Z,21.4
2022-12-08T01:33:27.926Z,21.36
2022-12-08T01:34:32.179Z,21.36
2022-12-08T01:35:37.433Z,21.37
2022-12-08T01:36:41.623Z,21.36
2022-12-08T01:37:45.903Z,21.37
2022-12-08T01:38:50.103Z,21.35
2022-12-08T01:39:54.316Z,21.32
2022-12-08T01:41:01.045Z,21.33
2022-12-08T01:42:05.263Z,21.34
2022-12-08T01:43:09.481Z,21.33
2022-12-08T01:44:13.702Z,21.35
2022-12-08T01:45:17.912Z,21.33
2022-12-08T01:46:22.299Z,21.33
2022-12-08T01:47:26.792Z,21.32
2022-12-08T01:48:31.154Z,21.33
2022-12-08T01:49:35.386Z,21.32
2022-12-08T01:50:39.625Z,21.33
2022-12-08T01:51:43.833Z,21.32
2022-12-08T01:52:48.069Z,21.29
2022-12-08T01:53:52.284Z,21.29
2022-12-08T01:54:56.532Z,21.29
2022-12-08T01:56:00.756Z,21.28
2022-12-08T01:57:05.039Z,21.27
2022-12-08T01:58:09.276Z,21.27
2022-12-08T01:59:13.515Z,21.25
2022-12-08T02:00:17.774Z,21.24
2022-12-08T02:01:22.085Z,21.24
2022-12-08T02:02:26.575Z,21.21
2022-12-08T02:03:31.011Z,21.2
2022-12-08T02:04:35.276Z,21.24
2022-12-08T02:05:39.536Z,21.25
2022-12-08T02:06:43.758Z,21.28
2022-12-08T02:07:48.039Z,21.31
2022-12-08T02:08:52.459Z,21.28
2022-12-08T02:09:56.664Z,21.25
2022-12-08T02:11:00.892Z,21.28
2022-12-08T02:12:05.107Z,21.28
2022-12-08T02:13:09.349Z,21.27
2022-12-08T02:14:13.572Z,21.26
2022-12-08T02:15:17.818Z,21.23
2022-12-08T02:16:22.118Z,21.25
2022-12-08T02:17:26.607Z,21.21
2022-12-08T02:18:30.863Z,21.21
2022-12-08T02:19:35.074Z,21.23
2022-12-08T02:20:39.393Z,21.21
2022-12-08T02:21:43.614Z,21.18
2022-12-08T02:22:47.858Z,21.17
2022-12-08T02:23:52.070Z,21.2
2022-12-08T02:24:56.296Z,21.18
2022-12-08T02:26:00.545Z,21.15
2022-12-08T02:27:04.852Z,21.16
2022-12-08T02:28:09.056Z,21.14
2022-12-08T02:29:13.272Z,21.14
2022-12-08T02:30:17.539Z,21.12
2022-12-08T02:31:21.837Z,21.13
2022-12-08T02:32:26.331Z,21.11
2022-12-08T02:33:30.660Z,21.15
2022-12-08T02:34:34.891Z,21.16
2022-12-08T02:35:39.128Z,21.12
2022-12-08T02:36:43.329Z,21.11
2022-12-08T02:37:47.542Z,21.1
2022-12-08T02:38:51.794Z,21.12
2022-12-08T02:39:56.035Z,21.14
2022-12-08T02:41:00.269Z,21.18
2022-12-08T02:42:04.506Z,21.19
2022-12-08T02:43:08.716Z,21.18
2022-12-08T02:44:12.935Z,21.17
2022-12-08T02:45:17.150Z,21.14
2022-12-08T02:46:21.427Z,21.14
2022-12-08T02:47:25.832Z,21.14
2022-12-08T02:48:30.068Z,21.13
2022-12-08T02:49:34.337Z,21.15
2022-12-08T02:50:38.584Z,21.15
2022-12-08T02:51:42.841Z,21.14
2022-12-08T02:52:47.108Z,21.16
2022-12-08T02:53:51.328Z,21.16
2022-12-08T02:54:55.552Z,21.14
2022-12-08T02:55:59.783Z,21.13
2022-12-08T02:57:04.013Z,21.15
2022-12-08T02:58:08.253Z,21.13
2022-12-08T02:59:12.520Z,21.11
2022-12-08T03:00:16.896Z,21.13
2022-12-08T03:01:21.202Z,21.15
2022-12-08T03:02:25.645Z,21.13
2022-12-08T03:03:30.046Z,21.14
2022-12-08T03:04:34.301Z,21.14
2022-12-08T03:05:38.533Z,21.14
2022-12-08T03:06:42.740Z,21.13
2022-12-08T03:07:47.009Z,21.13
2022-12-08T03:08:51.418Z,21.13
2022-12-08T03:09:55.630Z,21.14
2022-12-08T03:10:59.849Z,21.12
2022-12-08T03:12:04.141Z,21.14
2022-12-08T03:13:08.357Z,21.15
2022-12-08T03:14:12.575Z,21.14
2022-12-08T03:15:16.774Z,21.14
2022-12-08T03:16:21.102Z,21.13
2022-12-08T03:17:25.660Z,21.14
2022-12-08T03:18:29.914Z,21.13
2022-12-08T03:19:34.144Z,21.1
2022-12-08T03:20:38.421Z,21.1
2022-12-08T03:21:42.646Z,21.11
2022-12-08T03:22:46.868Z,21.11
2022-12-08T03:23:51.088Z,21.13
2022-12-08T03:24:55.320Z,21.11
2022-12-08T03:25:59.579Z,21.1
2022-12-08T03:27:03.826Z,21.07
2022-12-08T03:28:08.061Z,21.08
2022-12-08T03:29:12.280Z,21.07
2022-12-08T03:30:16.496Z,21.08
2022-12-08T03:31:20.786Z,21.06
2022-12-08T03:32:25.270Z,21.08
2022-12-08T03:33:29.490Z,21.08
2022-12-08T03:34:33.717Z,21.07
2022-12-08T03:35:37.949Z,21.06
2022-12-08T03:36:42.220Z,21.05
2022-12-08T03:37:46.491Z,21.07
2022-12-08T03:38:50.727Z,21.07
2022-12-08T03:39:54.940Z,21.04
2022-12-08T03:40:59.157Z,21.04
2022-12-08T03:42:03.357Z,21.04
2022-12-08T03:43:07.594Z,21.04
2022-12-08T03:44:11.812Z,21.02
2022-12-08T03:45:16.029Z,20.99
2022-12-08T03:47:21.955Z,20.99
2022-12-08T03:48:26.217Z,21
2022-12-08T03:49:30.451Z,21
2022-12-08T03:50:34.662Z,20.99
2022-12-08T03:51:38.907Z,20.98
2022-12-08T03:52:43.137Z,20.94
2022-12-08T03:53:47.355Z,20.95
2022-12-08T03:54:51.570Z,20.97
2022-12-08T03:55:55.792Z,20.97
2022-12-08T03:57:00.026Z,20.95
2022-12-08T03:58:04.260Z,20.95
2022-12-08T03:59:08.461Z,20.98
2022-12-08T04:00:12.674Z,20.97
2022-12-08T04:01:16.938Z,20.97
2022-12-08T04:02:21.377Z,21
2022-12-08T04:03:26.070Z,20.99
2022-12-08T04:04:30.446Z,21.01
2022-12-08T04:05:34.667Z,21.01
2022-12-08T04:06:38.894Z,20.98
2022-12-08T04:07:43.171Z,20.96
2022-12-08T04:08:47.645Z,20.95
2022-12-08T04:09:52.905Z,20.94
2022-12-08T04:10:57.172Z,21
2022-12-08T04:12:01.414Z,20.99
2022-12-08T04:13:05.660Z,20.97
2022-12-08T04:14:09.926Z,20.96
2022-12-08T04:15:14.354Z,21
2022-12-08T04:16:18.742Z,21
2022-12-08T04:17:23.298Z,21
2022-12-08T04:18:27.508Z,20.96
2022-12-08T04:19:31.751Z,20.96
2022-12-08T04:20:36.038Z,20.96
2022-12-08T04:21:40.297Z,20.92
2022-12-08T04:22:44.541Z,20.94
2022-12-08T04:23:49.411Z,20.99
2022-12-08T04:24:57.236Z,20.98
2022-12-08T04:26:01.450Z,20.98
2022-12-08T04:27:05.669Z,20.94
2022-12-08T04:28:09.921Z,20.93
2022-12-08T04:29:14.154Z,20.92
2022-12-08T04:30:18.367Z,20.91
2022-12-08T04:31:22.658Z,20.93
2022-12-08T04:32:27.295Z,20.93
2022-12-08T04:33:31.487Z,20.92
2022-12-08T04:34:35.694Z,20.93
2022-12-08T04:35:39.957Z,20.94
2022-12-08T04:36:44.207Z,20.92
2022-12-08T04:37:48.426Z,20.92
2022-12-08T04:38:52.634Z,20.91
2022-12-08T04:39:56.867Z,20.93
2022-12-08T04:41:01.102Z,20.92
2022-12-08T04:42:05.369Z,20.93
2022-12-08T04:43:09.590Z,20.94
2022-12-08T04:44:13.801Z,20.93
2022-12-08T04:45:18.018Z,20.94
2022-12-08T04:46:22.318Z,20.94
2022-12-08T04:47:26.775Z,20.94
2022-12-08T04:48:31.008Z,20.95
2022-12-08T04:49:35.234Z,20.95
2022-12-08T04:50:39.487Z,20.95
2022-12-08T04:51:43.711Z,20.95
2022-12-08T04:52:47.944Z,20.96
2022-12-08T04:53:52.189Z,21
2022-12-08T04:54:56.432Z,20.99
2022-12-08T04:56:00.711Z,20.97
2022-12-08T04:57:04.931Z,20.97
2022-12-08T04:58:09.206Z,20.96
2022-12-08T04:59:13.434Z,20.97
2022-12-08T05:00:17.634Z,20.97
2022-12-08T05:01:21.930Z,21.02
2022-12-08T05:02:26.382Z,21.05
2022-12-08T05:03:30.846Z,21.1
2022-12-08T05:04:35.063Z,21.08
2022-12-08T05:05:39.293Z,21.05
2022-12-08T05:06:43.522Z,21.07
2022-12-08T05:07:47.805Z,21.11
2022-12-08T05:08:52.277Z,21.15
2022-12-08T05:09:56.509Z,21.2
2022-12-08T05:11:00.765Z,21.26
2022-12-08T05:12:05.001Z,21.33
2022-12-08T05:13:10.249Z,21.42
2022-12-08T05:14:14.490Z,21.51
2022-12-08T05:15:18.760Z,21.63
2022-12-08T05:16:23.130Z,21.75
2022-12-08T05:17:27.591Z,21.86
2022-12-08T05:18:31.839Z,21.94
2022-12-08T05:19:36.054Z,22.03
2022-12-08T05:20:40.270Z,22.12
2022-12-08T05:21:44.533Z,22.19
2022-12-08T05:22:48.741Z,22.24
2022-12-08T05:23:53.011Z,22.29
2022-12-08T05:24:57.251Z,22.31
2022-12-08T05:26:01.501Z,22.39
2022-12-08T05:27:05.810Z,22.43
2022-12-08T05:28:39.399Z,22.45
2022-12-08T05:29:46.639Z,22.5
2022-12-08T05:30:50.864Z,22.52
2022-12-08T05:31:55.452Z,22.54
2022-12-08T05:32:59.899Z,22.57
2022-12-08T05:34:04.118Z,22.57
2022-12-08T05:35:08.342Z,22.63
2022-12-08T05:36:12.544Z,22.65
2022-12-08T05:37:16.804Z,22.68
2022-12-08T05:38:21.021Z,22.7
2022-12-08T05:39:25.268Z,22.71
2022-12-08T05:40:29.509Z,22.73
2022-12-08T05:41:33.708Z,22.74
2022-12-08T05:42:37.922Z,22.76
2022-12-08T05:43:42.203Z,22.77
2022-12-08T05:44:46.676Z,22.78
2022-12-08T05:45:50.934Z,22.76
2022-12-08T05:46:55.360Z,22.75
2022-12-08T05:47:59.601Z,22.75
2022-12-08T05:49:03.867Z,22.76
2022-12-08T05:50:08.087Z,22.79
2022-12-08T05:51:12.292Z,22.79
2022-12-08T05:52:16.523Z,22.8
2022-12-08T05:53:20.772Z,22.79
2022-12-08T05:54:25.001Z,22.77
2022-12-08T05:55:29.222Z,22.74
2022-12-08T05:56:33.439Z,22.72
2022-12-08T05:57:37.671Z,22.67
2022-12-08T05:58:41.935Z,22.61
2022-12-08T05:59:46.149Z,22.58
2022-12-08T06:00:50.374Z,22.56
2022-12-08T06:01:54.847Z,22.51
2022-12-08T06:02:59.471Z,22.47
2022-12-08T06:04:04.298Z,22.42
2022-12-08T06:05:08.583Z,22.4
2022-12-08T06:06:12.847Z,22.37
2022-12-08T06:07:17.054Z,22.33
2022-12-08T06:08:21.344Z,22.3
2022-12-08T06:09:25.915Z,22.25
2022-12-08T06:10:30.206Z,22.23
2022-12-08T06:11:34.471Z,22.19
2022-12-08T06:12:38.726Z,22.17
2022-12-08T06:13:42.953Z,22.14
2022-12-08T06:14:47.193Z,22.1
2022-12-08T06:15:51.426Z,22.08
2022-12-08T06:16:55.688Z,22.05
2022-12-08T06:18:00.090Z,22.03
2022-12-08T06:19:04.361Z,22.01
2022-12-08T06:20:08.622Z,21.98
2022-12-08T06:21:12.874Z,21.96
2022-12-08T06:22:17.098Z,21.94
2022-12-08T06:23:21.335Z,21.92
2022-12-08T06:24:25.572Z,21.89
2022-12-08T06:25:29.787Z,21.87
2022-12-08T06:26:34.015Z,21.87
2022-12-08T06:27:38.278Z,21.83
2022-12-08T06:28:42.518Z,21.82
2022-12-08T06:29:46.758Z,21.8
2022-12-08T06:30:50.983Z,21.8
2022-12-08T06:31:55.267Z,21.8
2022-12-08T06:32:59.839Z,21.81
2022-12-08T06:34:04.072Z,21.82
2022-12-08T06:35:08.295Z,21.87
2022-12-08T06:36:12.538Z,21.9
2022-12-08T06:37:16.755Z,21.94
2022-12-08T06:38:20.968Z,21.98
2022-12-08T06:39:25.176Z,22.05
2022-12-08T06:40:29.396Z,22.11
2022-12-08T06:41:34.642Z,22.13
2022-12-08T06:42:38.864Z,22.15
2022-12-08T06:43:43.116Z,22.18
2022-12-08T06:44:47.353Z,22.2
2022-12-08T06:45:51.592Z,22.2
2022-12-08T06:46:56.139Z,22.2
2022-12-08T06:48:00.349Z,22.19
2022-12-08T06:49:04.598Z,22.18
2022-12-08T06:50:08.845Z,22.19
2022-12-08T06:51:13.053Z,22.16
2022-12-08T06:52:17.549Z,22.15
2022-12-08T06:53:21.787Z,22.14
2022-12-08T06:54:26.005Z,22.13
2022-12-08T06:57:04.469Z,22.07
2022-12-08T06:58:08.669Z,22.07
2022-12-08T06:59:12.883Z,22.04
2022-12-08T07:00:17.092Z,22.03
2022-12-08T07:01:21.535Z,22.01
2022-12-08T07:02:26.051Z,22
2022-12-08T07:03:30.519Z,21.97
2022-12-08T07:04:34.753Z,21.96
2022-12-08T07:05:39.110Z,21.94
2022-12-08T07:06:43.336Z,21.92
2022-12-08T07:07:47.620Z,21.91
2022-12-08T07:08:52.111Z,21.9
2022-12-08T07:09:56.361Z,21.88
2022-12-08T07:11:00.604Z,21.87
2022-12-08T07:12:04.850Z,21.86
2022-12-08T07:13:09.097Z,21.83
2022-12-08T07:14:13.766Z,21.82
2022-12-08T07:15:17.969Z,21.81
2022-12-08T07:16:22.248Z,21.79
2022-12-08T07:17:26.668Z,21.77
2022-12-08T07:18:30.902Z,21.76
2022-12-08T07:19:35.188Z,21.75
2022-12-08T07:20:39.409Z,21.73
2022-12-08T07:21:44.606Z,21.72
2022-12-08T07:22:48.838Z,21.69
2022-12-08T07:23:57.515Z,21.68
2022-12-08T07:25:02.177Z,21.68
2022-12-08T07:26:06.482Z,21.66
2022-12-08T07:27:10.751Z,21.65
2022-12-08T07:28:14.993Z,21.65
2022-12-08T07:29:23.111Z,21.67
2022-12-08T07:30:30.348Z,21.7
2022-12-08T07:31:34.847Z,21.76
2022-12-08T07:32:39.080Z,21.82
2022-12-08T07:33:43.301Z,21.91
2022-12-08T07:34:47.548Z,22.01
2022-12-08T07:35:51.770Z,22.13
2022-12-08T07:36:56.071Z,22.23
2022-12-08T07:38:00.269Z,22.31
2022-12-08T07:39:07.536Z,22.39
2022-12-08T07:40:11.747Z,22.45
2022-12-08T07:41:15.945Z,22.46
2022-12-08T07:42:20.201Z,22.48
2022-12-08T07:43:24.451Z,22.5
2022-12-08T07:44:28.657Z,22.49
2022-12-08T07:45:32.869Z,22.48
2022-12-08T07:46:37.122Z,22.47
2022-12-08T07:47:41.588Z,22.44
2022-12-08T07:48:45.817Z,22.43
2022-12-08T07:49:50.052Z,22.43
2022-12-08T07:50:54.308Z,22.41
2022-12-08T07:51:58.519Z,22.38
2022-12-08T07:53:02.754Z,22.36
2022-12-08T07:54:06.994Z,22.33
2022-12-08T07:55:11.194Z,22.31
2022-12-08T07:56:15.407Z,22.26
2022-12-08T07:57:19.624Z,22.25
2022-12-08T07:58:23.903Z,22.24
2022-12-08T07:59:28.131Z,22.21
2022-12-08T08:00:32.422Z,22.19
2022-12-08T08:01:36.992Z,22.15
2022-12-08T08:02:41.661Z,22.14
2022-12-08T08:03:46.218Z,22.11
2022-12-08T08:04:52.808Z,22.09
2022-12-08T08:05:57.467Z,22.07
2022-12-08T08:07:01.707Z,22.06
2022-12-08T08:08:06.003Z,22.03
2022-12-08T08:09:10.420Z,22.01
2022-12-08T08:10:14.650Z,22
2022-12-08T08:11:21.127Z,21.98
2022-12-08T08:12:33.490Z,21.96
2022-12-08T08:13:37.793Z,21.94
2022-12-08T08:14:42.019Z,21.92
2022-12-08T08:15:46.398Z,21.91
2022-12-08T08:16:51.232Z,21.89
2022-12-08T08:17:55.893Z,21.88
2022-12-08T08:19:00.146Z,21.86
2022-12-08T08:20:04.592Z,21.85
2022-12-08T08:21:36.566Z,21.83
2022-12-08T08:22:49.791Z,21.8
2022-12-08T08:23:54.032Z,21.78
2022-12-08T08:24:58.277Z,21.76
2022-12-08T08:26:02.514Z,21.74
2022-12-08T08:27:06.732Z,21.73
2022-12-08T08:28:10.984Z,21.72
2022-12-08T08:29:15.199Z,21.7
2022-12-08T08:30:20.883Z,21.69
2022-12-08T08:31:25.514Z,21.66
2022-12-08T08:32:29.995Z,21.66
2022-12-08T08:33:34.221Z,21.66
2022-12-08T08:34:38.518Z,21.64
2022-12-08T08:35:42.717Z,21.65
2022-12-08T08:36:46.998Z,21.68
2022-12-08T08:37:51.391Z,21.69
2022-12-08T08:38:55.621Z,21.67
2022-12-08T08:40:00.879Z,21.71
2022-12-08T08:41:06.294Z,21.77
2022-12-08T08:42:10.529Z,21.84
2022-12-08T08:43:14.755Z,21.92
2022-12-08T08:44:18.989Z,22.03
2022-12-08T08:45:23.517Z,22.14
2022-12-08T08:46:27.800Z,22.23
2022-12-08T08:47:32.235Z,22.32
2022-12-08T08:48:36.445Z,22.35
2022-12-08T08:49:40.695Z,22.41
2022-12-08T08:50:44.939Z,22.43
2022-12-08T08:51:49.175Z,22.44
2022-12-08T08:52:53.545Z,22.46
2022-12-08T08:53:58.060Z,22.47
2022-12-08T08:55:02.345Z,22.44
2022-12-08T08:56:06.588Z,22.39
2022-12-08T08:57:10.912Z,22.39
2022-12-08T08:58:15.122Z,22.38
2022-12-08T08:59:19.376Z,22.38
2022-12-08T09:00:23.640Z,22.35
2022-12-08T09:01:28.115Z,22.34
2022-12-08T09:02:32.624Z,22.31
2022-12-08T09:03:36.846Z,22.3
2022-12-08T09:04:41.167Z,22.27
2022-12-08T09:05:45.761Z,22.24
2022-12-08T09:06:50.302Z,22.21
2022-12-08T09:07:54.607Z,22.19
2022-12-08T09:08:59.057Z,22.18
2022-12-08T09:10:03.613Z,22.16
2022-12-08T09:11:08.810Z,22.15
2022-12-08T09:12:13.053Z,22.13
2022-12-08T09:13:17.278Z,22.1
2022-12-08T09:14:21.554Z,22.08
2022-12-08T09:15:25.774Z,22.06
2022-12-08T09:16:30.079Z,22.03
2022-12-08T09:17:39.766Z,22.01
2022-12-08T09:18:43.991Z,22
2022-12-08T09:19:48.209Z,21.98
2022-12-08T09:20:52.423Z,21.97
2022-12-08T09:21:56.696Z,21.95
2022-12-08T09:23:00.899Z,21.95
2022-12-08T09:24:05.147Z,21.92
2022-12-08T09:25:09.389Z,21.9
2022-12-08T09:26:13.715Z,21.88
2022-12-08T09:27:17.918Z,21.86
2022-12-08T09:28:22.143Z,21.86
2022-12-08T09:29:29.852Z,21.86
2022-12-08T09:30:39.696Z,21.82
2022-12-08T09:31:43.996Z,21.81
2022-12-08T09:32:48.464Z,21.79
2022-12-08T09:33:52.712Z,21.77
2022-12-08T09:34:57.015Z,21.77
2022-12-08T09:36:01.230Z,21.75
2022-12-08T09:37:05.462Z,21.74
2022-12-08T09:38:09.951Z,21.72
2022-12-08T09:39:14.217Z,21.72
2022-12-08T09:40:18.433Z,21.71
2022-12-08T09:41:22.692Z,21.7
2022-12-08T09:42:26.945Z,21.7
2022-12-08T09:43:31.195Z,21.71
2022-12-08T09:44:35.427Z,21.73
2022-12-08T09:45:39.650Z,21.76
2022-12-08T09:46:43.953Z,21.83
2022-12-08T09:47:48.523Z,21.88
2022-12-08T09:48:52.741Z,21.98
2022-12-08T09:49:56.994Z,22.08
2022-12-08T09:51:01.223Z,22.17
2022-12-08T09:52:05.452Z,22.23
2022-12-08T09:53:09.710Z,22.28
2022-12-08T09:54:14.150Z,22.36
2022-12-08T09:55:18.574Z,22.38
2022-12-08T09:56:22.796Z,22.41
2022-12-08T09:57:27.052Z,22.41
2022-12-08T09:58:31.288Z,22.42
2022-12-08T09:59:35.533Z,22.41
2022-12-08T10:00:39.780Z,22.41
2022-12-08T10:01:44.068Z,22.4
2022-12-08T10:02:48.514Z,22.39
2022-12-08T10:03:52.729Z,22.36
2022-12-08T10:04:57.020Z,22.33
2022-12-08T10:06:01.601Z,22.32
2022-12-08T10:07:05.826Z,22.33
2022-12-08T10:08:10.425Z,22.3
2022-12-08T10:09:17.192Z,22.26
2022-12-08T10:10:26.338Z,22.25
2022-12-08T10:11:30.605Z,22.23
2022-12-08T10:12:34.840Z,22.21
2022-12-08T10:13:39.058Z,22.19
2022-12-08T10:14:43.276Z,22.17
2022-12-08T10:15:47.556Z,22.15
2022-12-08T10:16:52.169Z,22.15
2022-12-08T10:17:56.665Z,22.13
2022-12-08T10:19:00.878Z,22.12
2022-12-08T10:20:05.573Z,22.09
2022-12-08T10:21:10.720Z,22.07
2022-12-08T10:22:14.946Z,22.06
2022-12-08T10:23:19.441Z,22.03
2022-12-08T10:24:23.661Z,22.02
2022-12-08T10:25:27.881Z,21.99
2022-12-08T10:26:32.097Z,21.98
2022-12-08T10:27:36.356Z,21.97
2022-12-08T10:28:44.628Z,21.94
2022-12-08T10:29:49.326Z,21.93
2022-12-08T10:30:53.666Z,21.91
2022-12-08T10:31:58.177Z,21.9
2022-12-08T10:33:02.708Z,21.88
2022-12-08T10:34:06.920Z,21.87
2022-12-08T10:35:11.223Z,21.84
2022-12-08T10:36:15.538Z,21.82
2022-12-08T10:37:19.789Z,21.82
2022-12-08T10:38:24.049Z,21.8
2022-12-08T10:39:30.513Z,21.79
2022-12-08T10:40:36.092Z,21.77
2022-12-08T10:41:48.713Z,21.76
2022-12-08T10:42:52.973Z,21.75
2022-12-08T10:43:57.470Z,21.73
2022-12-08T10:45:01.720Z,21.74
2022-12-08T10:46:06.053Z,21.73
2022-12-08T10:47:10.482Z,21.74
2022-12-08T10:48:15.041Z,21.72
2022-12-08T10:49:19.327Z,21.72
2022-12-08T10:50:23.545Z,21.72
2022-12-08T10:51:27.767Z,21.71
2022-12-08T10:52:32.325Z,21.69
2022-12-08T10:53:36.602Z,21.7
2022-12-08T10:54:40.879Z,21.7
2022-12-08T10:55:45.106Z,21.68
2022-12-08T10:56:49.328Z,21.66
2022-12-08T10:57:53.586Z,21.66
2022-12-08T10:58:57.827Z,21.69
2022-12-08T11:00:02.281Z,21.74
2022-12-08T11:01:16.198Z,21.83
2022-12-08T11:02:20.852Z,21.93
2022-12-08T11:03:25.448Z,22.05
2022-12-08T11:04:29.689Z,22.15
2022-12-08T11:05:33.934Z,22.25
2022-12-08T11:06:38.319Z,22.33
2022-12-08T11:07:42.602Z,22.47
2022-12-08T11:08:47.027Z,22.52
2022-12-08T11:09:51.282Z,22.5
2022-12-08T11:10:55.522Z,22.5
2022-12-08T11:11:59.817Z,22.47
2022-12-08T11:13:04.041Z,22.45
2022-12-08T11:14:08.327Z,22.46
2022-12-08T11:15:12.569Z,22.44
2022-12-08T11:16:16.886Z,22.41
2022-12-08T11:17:21.501Z,22.4
2022-12-08T11:18:25.749Z,22.37
2022-12-08T11:19:29.968Z,22.4
2022-12-08T11:20:34.215Z,22.39
2022-12-08T11:21:38.480Z,22.38
2022-12-08T11:22:42.727Z,22.35
2022-12-08T11:23:46.984Z,22.33
2022-12-08T11:24:51.228Z,22.28
2022-12-08T11:25:55.477Z,22.26
2022-12-08T11:26:59.708Z,22.22
2022-12-08T11:28:03.949Z,22.2
2022-12-08T11:29:08.164Z,22.18
2022-12-08T11:30:14.390Z,22.18
2022-12-08T11:31:20.241Z,22.15
2022-12-08T11:32:24.705Z,22.15
2022-12-08T11:33:28.963Z,22.12
2022-12-08T11:34:33.171Z,22.11
2022-12-08T11:35:37.662Z,22.1
2022-12-08T11:36:41.903Z,22.07
2022-12-08T11:37:46.211Z,22.07
2022-12-08T11:38:50.941Z,22.04
2022-12-08T11:39:55.152Z,22.02
2022-12-08T11:40:59.466Z,22
2022-12-08T11:42:03.696Z,21.98
2022-12-08T11:43:07.947Z,21.96
2022-12-08T11:44:12.189Z,21.94
2022-12-08T11:45:16.411Z,21.92
2022-12-08T11:46:20.710Z,21.91
2022-12-08T11:47:25.218Z,21.89
2022-12-08T11:48:29.447Z,21.87
2022-12-08T11:49:33.674Z,21.86
2022-12-08T11:50:37.903Z,21.84
2022-12-08T11:51:42.156Z,21.83
2022-12-08T11:52:46.469Z,21.82
2022-12-08T11:53:50.789Z,21.81
2022-12-08T11:54:55.013Z,21.79
2022-12-08T11:55:59.341Z,21.78
2022-12-08T11:57:05.849Z,21.77
2022-12-08T11:58:10.125Z,21.77
2022-12-08T11:59:14.507Z,21.76
2022-12-08T12:00:18.724Z,21.74
2022-12-08T12:01:22.974Z,21.73
2022-12-08T12:02:27.282Z,21.73
2022-12-08T12:03:31.774Z,21.72
2022-12-08T12:04:38.822Z,21.73
2022-12-08T12:07:57.001Z,21.72
2022-12-08T12:09:01.463Z,21.73
2022-12-08T12:10:05.937Z,21.78
2022-12-08T12:11:10.996Z,21.85
2022-12-08T12:12:15.282Z,21.93
2022-12-08T12:13:19.544Z,22.04
2022-12-08T12:14:23.748Z,22.12
2022-12-08T12:15:27.985Z,22.21
2022-12-08T12:16:32.257Z,22.3
2022-12-08T12:17:36.746Z,22.37
2022-12-08T12:18:40.973Z,22.4
2022-12-08T12:19:45.183Z,22.45
2022-12-08T12:20:49.426Z,22.48
2022-12-08T12:21:53.891Z,22.5
2022-12-08T12:22:58.122Z,22.51
2022-12-08T12:24:02.397Z,22.53
2022-12-08T12:25:06.662Z,22.53
2022-12-08T12:26:13.145Z,22.52
2022-12-08T12:27:17.379Z,22.48
2022-12-08T12:28:21.886Z,22.45
2022-12-08T12:29:26.137Z,22.44
2022-12-08T12:30:30.385Z,22.43
2022-12-08T12:31:34.784Z,22.41
2022-12-08T12:32:39.019Z,22.39
2022-12-08T12:33:43.242Z,22.38
2022-12-08T12:34:47.493Z,22.36
2022-12-08T12:35:51.724Z,22.35
2022-12-08T12:36:55.975Z,22.33
2022-12-08T12:38:00.184Z,22.3
2022-12-08T12:39:04.399Z,22.27
2022-12-08T12:40:08.923Z,22.24
2022-12-08T12:41:13.252Z,22.23
2022-12-08T12:42:17.521Z,22.21
2022-12-08T12:43:21.758Z,22.21
2022-12-08T12:44:27.017Z,22.17
2022-12-08T12:45:31.270Z,22.13
2022-12-08T12:46:35.619Z,22.07
2022-12-08T12:47:40.028Z,22.03
2022-12-08T12:48:44.295Z,21.99
2022-12-08T12:49:48.506Z,21.9
2022-12-08T12:50:52.730Z,21.87
2022-12-08T12:51:56.950Z,21.82
2022-12-08T12:53:01.162Z,21.82
2022-12-08T12:54:05.425Z,21.78
2022-12-08T12:55:09.670Z,21.74
2022-12-08T12:56:13.892Z,21.74
2022-12-08T12:57:18.116Z,21.75
2022-12-08T12:58:22.320Z,21.67
2022-12-08T12:59:26.601Z,21.63
2022-12-08T13:00:30.796Z,21.57
2022-12-08T13:01:35.087Z,21.53
2022-12-08T13:02:39.496Z,21.53
2022-12-08T13:03:43.887Z,21.53
2022-12-08T13:04:48.131Z,21.46
2022-12-08T13:05:52.377Z,21.47
2022-12-08T13:06:56.589Z,21.44
2022-12-08T13:08:03.287Z,21.39
2022-12-08T13:09:08.705Z,21.37
2022-12-08T13:10:12.959Z,21.38
2022-12-08T13:11:17.248Z,21.35
2022-12-08T13:12:21.485Z,21.35
2022-12-08T13:13:25.722Z,21.33
2022-12-08T13:14:29.964Z,21.34
2022-12-08T13:15:34.217Z,21.3
2022-12-08T13:16:38.528Z,21.25
2022-12-08T13:17:42.963Z,21.2
2022-12-08T13:18:47.210Z,21.08
2022-12-08T13:19:51.982Z,21.1
2022-12-08T13:20:56.334Z,21.12
2022-12-08T13:22:00.609Z,21.13
2022-12-08T13:23:04.855Z,21.15
2022-12-08T13:24:09.112Z,21.16
2022-12-08T13:25:13.360Z,21.18
2022-12-08T13:26:17.616Z,21.2
2022-12-08T13:27:21.875Z,21.23
2022-12-08T13:28:26.092Z,21.22
2022-12-08T13:29:30.324Z,21.23
2022-12-08T13:30:34.609Z,21.24
2022-12-08T13:31:39.001Z,21.24
2022-12-08T13:33:17.054Z,21.27
2022-12-08T13:34:22.713Z,21.33
2022-12-08T13:35:27.004Z,21.37
2022-12-08T13:36:31.242Z,21.42
2022-12-08T13:37:38.254Z,21.47
2022-12-08T13:38:57.869Z,21.58
2022-12-08T13:40:02.266Z,21.69
2022-12-08T13:41:07.827Z,21.83
2022-12-08T13:42:12.056Z,21.93
2022-12-08T13:43:16.418Z,22.05
2022-12-08T13:45:03.889Z,22.12
2022-12-08T13:47:34.969Z,22.24
2022-12-08T13:57:58.094Z,22.11
2022-12-08T13:59:02.535Z,22.1
2022-12-08T14:00:06.795Z,22.07
2022-12-08T14:01:11.217Z,22.04
2022-12-08T14:02:16.061Z,22.02
2022-12-08T14:03:20.591Z,22.01
2022-12-08T14:07:05.511Z,21.94
2022-12-08T14:08:09.760Z,21.94
2022-12-08T14:09:14.800Z,21.92
2022-12-08T14:10:19.293Z,21.91
2022-12-08T14:11:23.794Z,21.9
2022-12-08T14:12:28.049Z,21.88
2022-12-08T14:13:32.280Z,21.87
2022-12-08T14:15:01.589Z,21.85
2022-12-08T14:16:07.923Z,21.83